Time;durP1;ratioP1;P1;durP2;ratioP2;P2;SDS_P1;SDS_P2;PMS_P1;PMS_P2;Temp;Humidity;BMP_temperature;BMP_pressure;BME280_temperature;BME280_humidity;BME280_pressure;Samples;Min_cycle;Max_cycle;Signal;HPM_P1;HPM_P2
2021/06/08 00:01:16;;;;;;;24.83;9.13;;;12.20;99.90;;;;;;5053753;28;20216;-87
2021/06/08 00:03:42;;;;;;;13.73;8.83;;;12.10;99.90;;;;;;5050867;28;20201;-88
2021/06/08 00:06:08;;;;;;;36.57;8.93;;;12.10;99.90;;;;;;5070094;28;20219;-87
2021/06/08 00:08:34;;;;;;;25.13;11.23;;;12.10;99.90;;;;;;5054714;28;20658;-89
2021/06/08 00:11:00;;;;;;;13.47;8.10;;;12.20;99.90;;;;;;5036552;28;20295;-87
2021/06/08 00:13:26;;;;;;;16.90;9.40;;;12.20;99.90;;;;;;5053730;28;20210;-87
2021/06/08 00:15:52;;;;;;;22.80;11.10;;;12.20;99.90;;;;;;5036375;28;20178;-87
2021/06/08 00:18:17;;;;;;;17.73;8.97;;;12.30;99.90;;;;;;5052432;28;20682;-87
2021/06/08 00:20:43;;;;;;;17.53;9.67;;;12.20;99.90;;;;;;5055193;28;20630;-89
2021/06/08 00:23:09;;;;;;;19.23;10.07;;;12.30;99.90;;;;;;5053064;28;20217;-86
2021/06/08 00:25:35;;;;;;;61.10;12.93;;;12.30;99.90;;;;;;5056151;28;20220;-87
2021/06/08 00:28:03;;;;;;;21.80;11.40;;;12.20;99.90;;;;;;5054739;28;20542;-87
2021/06/08 00:30:29;;;;;;;43.70;10.30;;;12.00;99.90;;;;;;5038323;28;20181;-86
2021/06/08 00:32:55;;;;;;;28.90;11.87;;;12.00;99.90;;;;;;5056747;28;20213;-87
2021/06/08 00:35:21;;;;;;;24.43;13.77;;;12.00;99.90;;;;;;5055901;28;20225;-88
2021/06/08 00:37:47;;;;;;;28.80;13.53;;;12.00;99.90;;;;;;5041400;28;20212;-89
2021/06/08 00:40:13;;;;;;;25.57;14.60;;;12.10;99.90;;;;;;5039950;28;20224;-87
2021/06/08 00:42:39;;;;;;;20.03;11.03;;;12.10;99.90;;;;;;5042553;28;20252;-86
2021/06/08 00:45:06;;;;;;;20.20;11.70;;;12.10;99.90;;;;;;5058847;28;20213;-87
2021/06/08 00:47:32;;;;;;;46.43;14.57;;;12.00;99.90;;;;;;5055413;28;20205;-88
2021/06/08 00:49:58;;;;;;;26.73;14.37;;;12.00;99.90;;;;;;5069418;28;20987;-87
2021/06/08 00:52:24;;;;;;;29.20;15.60;;;12.00;99.90;;;;;;5079565;28;20264;-87
2021/06/08 00:54:50;;;;;;;28.63;13.57;;;12.00;99.90;;;;;;5081430;28;20180;-88
2021/06/08 00:57:17;;;;;;;28.07;12.53;;;12.10;99.90;;;;;;5077957;28;20203;-87
2021/06/08 00:59:42;;;;;;;26.47;12.97;;;12.10;99.90;;;;;;5077965;28;20208;-87
2021/06/08 01:02:10;;;;;;;25.33;10.97;;;12.10;99.90;;;;;;5062481;28;20232;-86
2021/06/08 01:04:35;;;;;;;22.90;12.90;;;12.10;99.90;;;;;;5076890;28;20212;-87
2021/06/08 01:07:02;;;;;;;24.93;13.50;;;12.10;99.90;;;;;;5061661;28;20210;-88
2021/06/08 01:09:28;;;;;;;29.40;13.03;;;12.20;99.90;;;;;;5062508;28;20542;-86
2021/06/08 01:11:53;;;;;;;25.20;12.83;;;12.20;99.90;;;;;;5045373;28;20204;-86
2021/06/08 01:14:19;;;;;;;30.10;15.63;;;12.20;99.90;;;;;;5064912;28;20303;-87
2021/06/08 01:16:45;;;;;;;25.70;14.00;;;12.20;99.90;;;;;;5044167;28;20578;-86
2021/06/08 01:19:11;;;;;;;18.87;11.87;;;12.30;99.90;;;;;;5046799;28;20305;-87
2021/06/08 01:21:37;;;;;;;29.80;13.73;;;12.30;99.90;;;;;;5046038;28;20680;-86
2021/06/08 01:24:03;;;;;;;22.90;12.43;;;12.30;99.90;;;;;;5060869;28;20218;-86
2021/06/08 01:26:30;;;;;;;24.13;11.60;;;12.30;99.90;;;;;;5042345;28;20252;-88
2021/06/08 01:29:02;;;;;;;25.60;13.43;;;12.30;99.90;;;;;;5046048;28;20212;-86
2021/06/08 01:31:32;;;;;;;21.30;11.97;;;12.30;99.90;;;;;;5078168;28;20211;-89
2021/06/08 01:33:58;;;;;;;28.57;12.17;;;12.20;99.90;;;;;;5081035;28;20233;-87
2021/06/08 01:36:26;;;;;;;21.60;11.60;;;12.20;99.90;;;;;;5076515;28;20228;-86
2021/06/08 01:38:52;;;;;;;19.73;12.37;;;12.30;99.90;;;;;;5043162;28;20200;-87
2021/06/08 01:41:22;;;;;;;24.50;13.47;;;12.20;99.90;;;;;;5060195;28;20708;-86
2021/06/08 01:43:49;;;;;;;20.37;11.73;;;12.20;99.90;;;;;;5076160;28;20289;-89
2021/06/08 01:46:17;;;;;;;24.70;12.80;;;12.30;99.90;;;;;;5060823;28;20229;-87
2021/06/08 01:48:44;;;;;;;22.13;12.07;;;12.30;99.90;;;;;;5059649;28;20219;-88
2021/06/08 01:51:22;;;;;;;26.20;14.60;;;12.30;99.90;;;;;;5042846;28;20280;-87
2021/06/08 01:54:03;;;;;;;21.27;11.90;;;12.30;99.90;;;;;;5077711;28;21191;-86
2021/06/08 01:56:31;;;;;;;25.10;12.80;;;12.40;99.90;;;;;;5078374;28;20239;-86
2021/06/08 01:59:22;;;;;;;24.57;11.17;;;12.40;99.90;;;;;;5076696;28;20246;-87
2021/06/08 02:02:09;;;;;;;21.80;12.20;;;12.30;99.90;;;;;;5025318;28;20228;-86
2021/06/08 02:04:41;;;;;;;31.07;12.90;;;12.30;99.90;;;;;;5075806;28;20722;-87
2021/06/08 02:07:07;;;;;;;29.77;14.43;;;12.40;99.90;;;;;;5077421;28;20889;-86
2021/06/08 02:10:02;;;;;;;26.90;12.63;;;12.30;99.90;;;;;;5080828;28;20185;-86
2021/06/08 02:12:28;;;;;;;21.47;11.80;;;12.30;99.90;;;;;;5072233;28;20326;-88
2021/06/08 02:15:06;;;;;;;22.77;11.60;;;12.30;99.90;;;;;;5075901;28;20208;-86
2021/06/08 02:17:38;;;;;;;22.60;12.63;;;12.30;99.90;;;;;;5078681;28;20216;-87
2021/06/08 02:20:22;;;;;;;16.27;11.10;;;12.40;99.90;;;;;;5077756;28;20235;-87
2021/06/08 02:22:52;;;;;;;20.70;10.23;;;12.40;99.90;;;;;;5095682;28;20273;-86
2021/06/08 02:25:21;;;;;;;21.63;11.27;;;12.40;99.90;;;;;;5080650;28;20219;-87
2021/06/08 02:27:50;;;;;;;17.83;11.13;;;12.50;99.90;;;;;;5076683;28;20180;-87
2021/06/08 02:30:18;;;;;;;23.07;10.50;;;12.50;99.90;;;;;;5077063;28;20229;-87
2021/06/08 02:32:46;;;;;;;21.17;10.50;;;12.50;99.90;;;;;;5077945;28;20243;-89
2021/06/08 02:35:13;;;;;;;24.50;9.53;;;12.50;99.90;;;;;;5093928;28;20232;-89
2021/06/08 02:37:40;;;;;;;16.20;9.40;;;12.50;99.90;;;;;;5077861;28;20808;-86
2021/06/08 02:40:07;;;;;;;28.97;10.03;;;12.40;99.90;;;;;;5041654;28;20271;-86
2021/06/08 02:42:34;;;;;;;16.90;7.67;;;12.30;99.90;;;;;;5060975;28;21194;-87
2021/06/08 02:45:01;;;;;;;20.30;7.97;;;12.30;99.90;;;;;;5058592;28;20205;-89
2021/06/08 02:47:28;;;;;;;40.57;8.27;;;12.30;99.90;;;;;;5058945;28;20296;-87
2021/06/08 02:49:55;;;;;;;36.57;9.40;;;12.20;99.90;;;;;;5072201;28;20228;-87
2021/06/08 02:52:23;;;;;;;25.90;6.67;;;12.20;99.90;;;;;;5077267;28;20232;-90
2021/06/08 02:54:51;;;;;;;14.83;7.53;;;12.20;99.90;;;;;;5060606;28;20189;-87
2021/06/08 02:57:19;;;;;;;22.73;6.23;;;12.30;99.90;;;;;;5077659;28;20205;-87
2021/06/08 02:59:48;;;;;;;14.93;7.60;;;12.20;99.90;;;;;;5096122;28;20231;-87
2021/06/08 03:02:17;;;;;;;18.50;7.50;;;12.10;99.90;;;;;;5075862;28;20223;-87
2021/06/08 03:04:58;;;;;;;10.63;6.13;;;12.10;99.90;;;;;;5075207;28;20220;-87
2021/06/08 03:07:25;;;;;;;17.47;5.20;;;12.10;99.90;;;;;;5074292;28;20212;-87
2021/06/08 03:10:11;;;;;;;34.00;6.73;;;12.10;99.90;;;;;;5061919;28;20245;-87
2021/06/08 03:12:48;;;;;;;38.80;6.83;;;12.10;99.90;;;;;;5093729;28;20203;-89
2021/06/08 03:15:16;;;;;;;19.77;6.27;;;12.10;99.90;;;;;;5076278;28;20214;-87
2021/06/08 03:17:44;;;;;;;37.97;6.70;;;12.10;99.90;;;;;;5073399;28;20679;-87
2021/06/08 03:20:19;;;;;;;28.07;6.87;;;12.10;99.90;;;;;;5076647;28;20216;-87
2021/06/08 03:22:48;;;;;;;30.27;6.10;;;12.10;99.90;;;;;;5076379;28;20708;-90
2021/06/08 03:25:17;;;;;;;32.23;5.73;;;12.20;99.90;;;;;;5094839;28;20187;-87
2021/06/08 03:27:43;;;;;;;22.47;7.00;;;12.30;99.90;;;;;;5077224;28;20181;-86
2021/06/08 03:30:11;;;;;;;20.30;7.10;;;12.30;99.90;;;;;;5079256;28;20215;-87
2021/06/08 03:32:37;;;;;;;98.73;9.90;;;12.40;99.90;;;;;;5076354;28;20212;-88
2021/06/08 03:35:06;;;;;;;12.37;5.60;;;12.30;99.90;;;;;;5077334;28;20212;-87
2021/06/08 03:37:33;;;;;;;29.27;7.57;;;12.30;99.90;;;;;;5061478;28;20319;-88
2021/06/08 03:39:59;;;;;;;16.37;7.20;;;12.30;99.90;;;;;;5075903;28;20184;-86
2021/06/08 03:42:26;;;;;;;13.37;6.43;;;12.30;99.90;;;;;;5059354;28;20228;-87
2021/06/08 03:44:52;;;;;;;9.23;6.20;;;12.30;99.90;;;;;;5060829;28;20218;-87
2021/06/08 03:47:19;;;;;;;15.03;6.43;;;12.30;99.90;;;;;;5059816;28;20794;-87
2021/06/08 03:49:47;;;;;;;33.10;7.90;;;12.40;99.90;;;;;;5058568;28;20256;-87
2021/06/08 03:52:13;;;;;;;48.57;7.57;;;12.40;99.90;;;;;;5064739;28;20225;-87
2021/06/08 03:54:39;;;;;;;12.50;6.70;;;12.40;99.90;;;;;;5030213;28;20219;-86
2021/06/08 03:57:06;;;;;;;28.73;7.27;;;12.50;99.90;;;;;;5045343;28;20225;-87
2021/06/08 03:59:35;;;;;;;11.07;4.83;;;12.40;99.90;;;;;;5032867;28;20274;-88
2021/06/08 04:02:01;;;;;;;10.00;5.50;;;12.40;99.90;;;;;;5066010;28;20596;-86
2021/06/08 04:04:29;;;;;;;10.40;6.57;;;12.60;99.90;;;;;;5066564;28;21225;-86
2021/06/08 04:06:55;;;;;;;20.77;5.83;;;12.70;99.90;;;;;;5071369;28;20277;-87
2021/06/08 04:09:22;;;;;;;61.30;8.60;;;12.70;99.90;;;;;;5049441;28;20315;-86
2021/06/08 04:11:50;;;;;;;24.13;6.03;;;12.80;99.90;;;;;;5049500;28;20228;-86
2021/06/08 04:14:17;;;;;;;76.73;7.73;;;12.70;99.90;;;;;;5066249;28;20245;-86
2021/06/08 04:16:45;;;;;;;24.03;5.60;;;12.70;99.90;;;;;;5049327;28;20693;-87
2021/06/08 04:19:12;;;;;;;48.77;8.60;;;12.50;99.90;;;;;;5048431;28;20254;-89
2021/06/08 04:21:38;;;;;;;22.33;6.23;;;12.50;99.90;;;;;;5033642;28;20214;-87
2021/06/08 04:24:05;;;;;;;7.90;4.10;;;12.40;99.90;;;;;;5048813;28;20220;-86
2021/06/08 04:26:32;;;;;;;10.00;5.07;;;12.30;99.90;;;;;;5066027;28;20274;-87
2021/06/08 04:28:59;;;;;;;52.30;6.57;;;12.30;99.90;;;;;;5065297;28;20276;-87
2021/06/08 04:31:25;;;;;;;21.47;6.10;;;12.40;99.90;;;;;;5049109;28;20278;-87
2021/06/08 04:33:52;;;;;;;42.87;6.77;;;12.40;99.90;;;;;;5038585;28;20288;-87
2021/06/08 04:36:19;;;;;;;25.63;6.23;;;12.40;99.90;;;;;;5040464;28;20217;-91
2021/06/08 04:38:45;;;;;;;23.67;6.43;;;12.50;99.90;;;;;;5032918;28;20213;-87
2021/06/08 04:41:14;;;;;;;29.37;6.57;;;12.50;99.90;;;;;;5044985;28;20217;-87
2021/06/08 04:43:41;;;;;;;16.87;5.90;;;12.60;99.90;;;;;;5065141;28;20800;-86
2021/06/08 04:46:13;;;;;;;21.77;5.83;;;12.50;99.90;;;;;;5064695;28;20182;-88
2021/06/08 04:48:41;;;;;;;42.67;7.47;;;12.50;99.90;;;;;;5065482;28;20270;-86
2021/06/08 04:51:07;;;;;;;16.90;6.37;;;12.50;99.90;;;;;;5051307;28;20229;-86
2021/06/08 04:53:33;;;;;;;52.10;7.40;;;12.60;99.90;;;;;;5075724;28;20215;-86
2021/06/08 04:55:59;;;;;;;29.27;5.87;;;12.60;99.90;;;;;;5039060;28;20201;-86
2021/06/08 04:58:25;;;;;;;31.80;5.87;;;12.60;99.90;;;;;;5044687;28;20221;-89
2021/06/08 05:01:04;;;;;;;23.97;5.20;;;12.70;99.90;;;;;;5057743;28;20188;-89
2021/06/08 05:03:37;;;;;;;25.73;4.77;;;12.60;99.90;;;;;;5075201;28;20227;-89
2021/06/08 05:06:06;;;;;;;34.97;4.93;;;12.60;99.90;;;;;;5077909;28;20243;-86
2021/06/08 05:08:49;;;;;;;47.90;5.03;;;12.60;99.90;;;;;;5057635;28;20262;-87
2021/06/08 05:11:35;;;;;;;19.27;5.57;;;12.50;99.90;;;;;;5075317;28;20578;-87
2021/06/08 05:14:04;;;;;;;22.17;5.90;;;12.50;99.90;;;;;;5062797;28;20240;-87
2021/06/08 05:16:30;;;;;;;11.23;4.77;;;12.60;99.90;;;;;;5074892;28;21921;-86
2021/06/08 05:18:58;;;;;;;22.90;4.27;;;12.60;99.90;;;;;;5057832;28;20322;-88
2021/06/08 05:21:24;;;;;;;7.07;4.80;;;12.50;99.90;;;;;;5074441;28;20308;-87
2021/06/08 05:23:52;;;;;;;5.60;3.43;;;12.40;99.90;;;;;;5075389;28;20217;-87
2021/06/08 05:26:18;;;;;;;21.20;4.07;;;12.20;99.90;;;;;;5056910;28;20200;-86
2021/06/08 05:28:45;;;;;;;10.73;4.40;;;12.20;99.90;;;;;;5057493;28;20213;-86
2021/06/08 05:31:10;;;;;;;8.47;4.53;;;12.40;99.90;;;;;;5074791;28;20293;-86
2021/06/08 05:33:37;;;;;;;16.40;4.73;;;12.50;99.90;;;;;;5059245;28;20174;-86
2021/06/08 05:36:03;;;;;;;26.37;4.83;;;12.40;99.90;;;;;;5077350;28;20266;-89
2021/06/08 05:38:37;;;;;;;9.70;5.97;;;12.40;99.90;;;;;;5043183;28;20213;-87
2021/06/08 05:41:08;;;;;;;8.47;4.83;;;12.40;99.90;;;;;;5056864;28;20223;-86
2021/06/08 05:43:34;;;;;;;21.77;4.67;;;12.50;99.90;;;;;;5074193;28;20232;-87
2021/06/08 05:46:05;;;;;;;13.00;5.17;;;12.60;99.90;;;;;;5058077;28;20182;-86
2021/06/08 05:48:32;;;;;;;12.67;5.23;;;12.70;99.90;;;;;;5074680;28;20692;-86
2021/06/08 05:51:00;;;;;;;10.20;5.43;;;12.70;99.90;;;;;;5036488;28;20312;-85
2021/06/08 05:53:26;;;;;;;11.73;6.27;;;12.80;99.90;;;;;;5046716;28;20248;-86
2021/06/08 05:55:54;;;;;;;7.77;4.87;;;12.90;99.90;;;;;;5037118;28;20613;-87
2021/06/08 05:58:29;;;;;;;8.17;5.37;;;12.80;99.90;;;;;;5063485;28;20228;-86
2021/06/08 06:00:58;;;;;;;12.50;5.13;;;12.80;99.90;;;;;;5061818;28;20174;-87
2021/06/08 06:03:26;;;;;;;11.90;6.57;;;12.90;99.90;;;;;;5045383;28;20237;-87
2021/06/08 06:05:53;;;;;;;10.27;5.27;;;13.10;99.90;;;;;;5063054;28;20202;-90
2021/06/08 06:08:19;;;;;;;10.17;4.50;;;13.20;99.90;;;;;;5046427;28;20201;-88
2021/06/08 06:10:46;;;;;;;8.87;4.70;;;13.20;99.90;;;;;;5065330;28;20304;-86
2021/06/08 06:13:14;;;;;;;8.90;5.40;;;13.20;99.90;;;;;;5030718;28;20198;-88
2021/06/08 06:15:41;;;;;;;9.73;5.03;;;13.30;99.90;;;;;;5063585;28;20280;-89
2021/06/08 06:18:08;;;;;;;8.13;4.93;;;13.40;99.90;;;;;;5063007;28;20233;-88
2021/06/08 06:20:34;;;;;;;11.07;6.23;;;13.70;99.90;;;;;;5062396;28;20268;-86
2021/06/08 06:23:01;;;;;;;8.53;4.83;;;14.00;99.90;;;;;;5063452;28;20221;-86
2021/06/08 06:25:27;;;;;;;8.03;4.17;;;14.20;99.90;;;;;;5029820;28;20634;-89
2021/06/08 06:27:53;;;;;;;10.17;5.80;;;13.70;99.90;;;;;;5063697;28;20196;-89
2021/06/08 06:30:20;;;;;;;9.53;4.83;;;13.70;99.90;;;;;;5030673;28;20205;-86
2021/06/08 06:32:45;;;;;;;9.80;5.57;;;13.50;99.90;;;;;;5045543;28;20209;-87
2021/06/08 06:35:12;;;;;;;6.43;4.93;;;13.50;99.90;;;;;;5028931;28;20254;-86
2021/06/08 06:37:39;;;;;;;9.37;5.30;;;13.70;99.90;;;;;;5062760;28;20585;-88
2021/06/08 06:40:09;;;;;;;7.63;5.47;;;13.60;99.90;;;;;;5046086;28;20188;-88
2021/06/08 06:42:45;;;;;;;9.63;5.13;;;13.60;99.90;;;;;;5063384;28;20251;-86
2021/06/08 06:45:16;;;;;;;11.00;5.37;;;13.50;99.90;;;;;;5064117;28;20216;-87
2021/06/08 06:47:43;;;;;;;9.30;5.80;;;13.50;99.90;;;;;;5061599;28;20274;-86
2021/06/08 06:50:11;;;;;;;6.97;4.73;;;13.80;99.90;;;;;;5062749;28;20266;-88
2021/06/08 06:52:39;;;;;;;7.20;4.80;;;13.90;99.90;;;;;;5091603;28;20208;-87
2021/06/08 06:55:08;;;;;;;8.70;4.83;;;14.30;99.90;;;;;;5060902;28;20233;-87
2021/06/08 06:57:35;;;;;;;8.70;5.13;;;14.70;99.90;;;;;;5060770;28;20200;-89
2021/06/08 07:00:02;;;;;;;10.00;6.43;;;15.00;99.90;;;;;;5044489;28;20425;-87
2021/06/08 07:02:30;;;;;;;10.20;5.60;;;14.90;99.90;;;;;;5061838;28;20240;-87
2021/06/08 07:04:56;;;;;;;9.70;5.33;;;15.00;99.90;;;;;;5075997;28;20215;-88
2021/06/08 07:07:23;;;;;;;7.67;5.60;;;14.70;99.90;;;;;;5057499;28;20231;-87
2021/06/08 07:09:50;;;;;;;7.37;4.30;;;14.80;99.90;;;;;;5075709;28;21283;-87
2021/06/08 07:12:25;;;;;;;10.70;5.53;;;14.60;99.90;;;;;;5095055;28;20750;-87
2021/06/08 07:14:52;;;;;;;7.13;4.63;;;15.10;99.90;;;;;;5060678;28;20684;-87
2021/06/08 07:17:20;;;;;;;6.47;5.30;;;15.40;99.90;;;;;;5076249;28;20695;-87
2021/06/08 07:19:47;;;;;;;9.30;5.23;;;15.50;99.90;;;;;;5077551;28;20243;-87
2021/06/08 07:22:14;;;;;;;8.13;4.93;;;15.80;99.90;;;;;;5078071;28;20216;-86
2021/06/08 07:24:41;;;;;;;7.33;5.33;;;15.80;99.90;;;;;;5074738;28;20195;-87
2021/06/08 07:27:13;;;;;;;9.40;5.67;;;16.10;99.90;;;;;;5075921;28;20712;-87
2021/06/08 07:29:40;;;;;;;5.47;4.40;;;16.90;99.90;;;;;;5091374;28;20224;-87
2021/06/08 07:32:11;;;;;;;8.43;5.10;;;18.10;99.90;;;;;;5096024;28;20227;-88
2021/06/08 07:34:56;;;;;;;6.40;5.17;;;18.90;99.90;;;;;;5099427;28;20277;-88
2021/06/08 07:37:25;;;;;;;8.07;5.47;;;18.60;99.90;;;;;;5096406;28;20215;-87
2021/06/08 07:40:13;;;;;;;7.70;4.87;;;18.60;99.90;;;;;;5064314;28;20185;-87
2021/06/08 07:42:42;;;;;;;8.43;5.90;;;20.00;99.90;;;;;;5078256;28;20277;-88
2021/06/08 07:45:19;;;;;;;6.70;5.17;;;20.50;99.90;;;;;;5080073;28;20668;-89
2021/06/08 07:47:49;;;;;;;6.57;4.53;;;20.70;99.90;;;;;;5098630;28;20258;-89
2021/06/08 07:50:16;;;;;;;7.93;5.03;;;22.00;99.90;;;;;;5079685;28;20673;-87
2021/06/08 07:52:42;;;;;;;7.77;4.20;;;22.00;99.90;;;;;;5061639;28;20255;-89
2021/06/08 07:55:11;;;;;;;7.83;5.13;;;21.40;99.90;;;;;;5063215;28;20184;-88
2021/06/08 07:57:37;;;;;;;6.65;4.90;;;21.70;99.90;;;;;;5080030;28;20250;-90
2021/06/08 08:00:06;;;;;;;6.03;4.83;;;20.90;99.90;;;;;;5047971;28;20201;-87
2021/06/08 08:02:32;;;;;;;9.70;5.28;;;21.00;99.90;;;;;;5097318;28;20228;-88
2021/06/08 08:05:07;;;;;;;8.75;5.70;;;21.40;99.90;;;;;;5061795;28;20216;-89
2021/06/08 08:07:34;;;;;;;9.23;5.38;;;22.20;99.90;;;;;;5049699;28;20737;-89
2021/06/08 08:10:00;;;;;;;8.00;5.50;;;22.50;99.90;;;;;;5061268;28;20326;-88
2021/06/08 08:12:26;;;;;;;9.13;5.28;;;22.00;99.90;;;;;;5061688;28;20274;-88
2021/06/08 08:14:53;;;;;;;7.78;5.28;;;22.00;99.90;;;;;;5045446;28;20207;-87
2021/06/08 08:17:26;;;;;;;6.82;5.03;;;22.90;99.90;;;;;;5078451;28;20691;-88
2021/06/08 08:19:52;;;;;;;8.23;5.20;;;23.80;99.90;;;;;;5081329;28;20844;-89
2021/06/08 08:22:18;;;;;;;6.95;5.07;;;24.80;99.90;;;;;;5080347;28;21280;-88
2021/06/08 08:24:44;;;;;;;7.43;5.25;;;24.40;99.90;;;;;;5045469;28;20191;-88
2021/06/08 08:27:12;;;;;;;8.48;5.20;;;24.70;99.90;;;;;;5062833;28;20566;-88
2021/06/08 08:29:39;;;;;;;8.35;5.88;;;24.80;99.90;;;;;;5077936;28;20238;-90
2021/06/08 08:32:06;;;;;;;7.53;5.32;;;25.90;99.90;;;;;;5061173;28;20640;-87
2021/06/08 08:34:32;;;;;;;7.22;5.47;;;27.20;99.90;;;;;;5044263;28;20222;-86
2021/06/08 08:36:57;;;;;;;7.03;5.22;;;27.50;99.90;;;;;;5062554;28;20242;-87
2021/06/08 08:39:23;;;;;;;9.90;6.07;;;27.50;99.90;;;;;;5045309;28;20213;-87
2021/06/08 08:41:53;;;;;;;7.18;5.82;;;26.30;99.90;;;;;;5046992;28;20250;-87
2021/06/08 08:44:18;;;;;;;8.57;4.97;;;26.30;99.90;;;;;;5077343;28;20223;-86
2021/06/08 08:46:46;;;;;;;6.85;5.43;;;26.30;99.90;;;;;;5043282;28;20726;-86
2021/06/08 08:49:12;;;;;;;5.22;4.43;;;26.80;99.90;;;;;;5094455;28;20181;-86
2021/06/08 08:51:38;;;;;;;5.70;5.20;;;27.60;99.90;;;;;;5075721;28;20229;-86
2021/06/08 08:54:05;;;;;;;7.45;5.50;;;26.60;99.90;;;;;;5074191;28;20327;-87
2021/06/08 08:56:37;;;;;;;7.20;5.57;;;25.70;99.90;;;;;;5083970;28;20220;-88
2021/06/08 08:59:08;;;;;;;7.53;5.57;;;25.60;99.90;;;;;;5075684;28;20258;-88
2021/06/08 09:01:36;;;;;;;8.35;5.20;;;26.50;99.90;;;;;;5072871;28;20235;-88
2021/06/08 09:04:04;;;;;;;6.93;5.65;;;27.40;99.90;;;;;;5073904;28;20688;-87
2021/06/08 09:06:32;;;;;;;7.53;5.82;;;27.30;99.90;;;;;;5059040;28;20188;-86
2021/06/08 09:08:58;;;;;;;7.25;5.60;;;27.60;99.90;;;;;;5057223;28;20304;-86
2021/06/08 09:11:24;;;;;;;11.00;6.45;;;27.80;99.90;;;;;;5058299;28;20325;-87
2021/06/08 09:13:50;;;;;;;6.00;5.13;;;27.80;99.90;;;;;;5074658;28;20259;-88
2021/06/08 09:16:16;;;;;;;7.63;5.85;;;28.60;99.90;;;;;;5056022;28;20181;-89
2021/06/08 09:18:43;;;;;;;6.63;5.13;;;29.40;99.90;;;;;;5076279;28;20189;-88
2021/06/08 09:21:18;;;;;;;8.85;5.40;;;30.00;99.90;;;;;;5075794;28;20209;-88
2021/06/08 09:23:45;;;;;;;6.65;5.15;;;30.20;99.90;;;;;;5073459;28;20212;-89
2021/06/08 09:26:14;;;;;;;5.80;4.80;;;29.80;99.90;;;;;;5042566;28;20688;-89
2021/06/08 09:28:40;;;;;;;6.28;5.50;;;28.90;99.90;;;;;;5077415;28;20256;-90
2021/06/08 09:31:14;;;;;;;7.38;5.13;;;26.90;99.90;;;;;;5076608;28;20223;-92
2021/06/08 09:33:45;;;;;;;6.43;5.10;;;27.10;99.90;;;;;;5075626;28;20177;-90
2021/06/08 09:36:23;;;;;;;6.30;5.38;;;27.70;99.90;;;;;;5092129;28;20221;-90
2021/06/08 09:39:05;;;;;;;5.00;4.50;;;28.70;99.90;;;;;;5059310;28;20209;-89
2021/06/08 09:41:47;;;;;;;6.80;4.60;;;28.80;99.90;;;;;;5073704;28;20213;-90
2021/06/08 09:44:17;;;;;;;5.80;5.20;;;28.40;99.90;;;;;;5076232;28;20208;-89
2021/06/08 09:46:48;;;;;;;5.00;4.50;;;28.30;99.90;;;;;;5058385;28;20205;-89
2021/06/08 09:49:35;;;;;;;7.78;4.93;;;27.90;99.90;;;;;;5073526;28;20168;-89
2021/06/08 09:52:07;;;;;;;6.57;4.90;;;26.50;99.90;;;;;;5054272;28;20237;-89
2021/06/08 09:54:41;;;;;;;8.45;5.10;;;25.90;99.90;;;;;;5062871;28;20174;-89
2021/06/08 09:57:20;;;;;;;9.27;5.15;;;26.50;99.90;;;;;;5055436;28;20212;-89
2021/06/08 10:00:00;;;;;;;5.45;4.70;;;27.50;99.90;;;;;;5070112;28;20221;-89
2021/06/08 10:05:19;;;;;;;6.45;4.70;;;27.70;99.90;;;;;;5047140;28;20225;-89
2021/06/08 10:07:46;;;;;;;7.15;5.20;;;28.50;99.90;;;;;;5054120;28;20245;-88
2021/06/08 10:10:14;;;;;;;6.15;5.18;;;28.40;99.90;;;;;;5054147;28;20277;-89
2021/06/08 10:13:11;;;;;;;5.97;5.13;;;27.90;99.90;;;;;;5053922;28;20281;-89
2021/06/08 10:15:59;;;;;;;8.57;4.97;;;27.10;99.90;;;;;;5037932;28;20244;-91
2021/06/08 10:18:26;;;;;;;5.63;5.13;;;27.50;99.90;;;;;;5055391;28;20205;-89
2021/06/08 10:20:56;;;;;;;6.63;5.35;;;27.80;99.90;;;;;;5054470;28;20206;-89
2021/06/08 10:23:31;;;;;;;8.43;6.80;;;28.30;99.90;;;;;;5055145;28;21190;-89
2021/06/08 10:26:12;;;;;;;9.68;6.47;;;28.90;99.90;;;;;;5055327;28;20229;-89
2021/06/08 10:28:38;;;;;;;13.65;7.93;;;27.70;99.90;;;;;;5054400;28;20244;-88
2021/06/08 10:31:05;;;;;;;10.98;7.45;;;27.00;99.90;;;;;;5054477;28;20181;-88
2021/06/08 10:33:32;;;;;;;9.63;7.20;;;26.60;99.90;;;;;;5053878;28;20261;-88
2021/06/08 10:35:58;;;;;;;11.70;6.65;;;26.00;99.90;;;;;;5053964;28;20308;-89
2021/06/08 10:38:25;;;;;;;10.75;7.70;;;25.80;99.90;;;;;;5053619;28;20218;-89
2021/06/08 10:40:55;;;;;;;10.10;7.20;;;25.20;99.90;;;;;;5038224;28;20295;-88
2021/06/08 10:43:24;;;;;;;9.63;7.32;;;25.70;99.90;;;;;;5052650;28;20671;-87
2021/06/08 10:45:52;;;;;;;11.32;7.25;;;26.50;99.90;;;;;;5054572;28;20214;-87
2021/06/08 10:48:25;;;;;;;9.73;7.75;;;27.10;99.90;;;;;;5037896;28;20210;-87
2021/06/08 10:51:11;;;;;;;10.35;7.75;;;27.50;99.90;;;;;;5057485;28;20256;-88
2021/06/08 10:53:40;;;;;;;9.98;7.28;;;27.00;99.90;;;;;;5077879;28;20215;-89
2021/06/08 10:56:29;;;;;;;8.10;6.65;;;26.70;99.90;;;;;;5074509;28;20226;-88
2021/06/08 10:58:58;;;;;;;11.57;7.80;;;27.20;99.90;;;;;;5059605;28;20266;-89
2021/06/08 11:01:34;;;;;;;9.50;7.28;;;27.20;99.90;;;;;;5076641;28;21082;-91
2021/06/08 11:04:03;;;;;;;10.63;8.13;;;26.50;99.90;;;;;;5075278;28;20198;-89
2021/06/08 11:06:49;;;;;;;9.40;6.90;;;26.10;99.90;;;;;;5076924;28;20198;-89
2021/06/08 11:09:36;;;;;;;8.88;7.05;;;26.30;99.90;;;;;;5077964;28;20365;-89
2021/06/08 11:12:09;;;;;;;8.77;5.97;;;26.10;99.90;;;;;;5075461;28;20223;-89
2021/06/08 11:17:12;;;;;;;9.23;6.47;;;25.70;99.90;;;;;;5092951;28;20243;-88
2021/06/08 11:19:41;;;;;;;8.00;6.22;;;25.60;99.90;;;;;;5059657;28;20227;-89
2021/06/08 11:22:07;;;;;;;7.85;6.45;;;25.60;99.90;;;;;;5077097;28;20204;-88
2021/06/08 11:24:38;;;;;;;9.50;6.78;;;26.00;99.90;;;;;;5039949;28;20192;-88
2021/06/08 11:27:04;;;;;;;9.55;7.13;;;26.40;99.90;;;;;;5078231;28;20677;-89
2021/06/08 11:29:54;;;;;;;8.93;6.63;;;26.70;99.90;;;;;;5041212;28;20291;-89
2021/06/08 11:32:29;;;;;;;9.32;6.93;;;26.50;99.90;;;;;;5076471;28;20239;-89
2021/06/08 11:35:12;;;;;;;7.53;5.55;;;26.60;99.90;;;;;;5073220;28;20207;-89
2021/06/08 11:37:55;;;;;;;7.60;6.35;;;26.50;99.90;;;;;;5093297;28;20216;-88
2021/06/08 11:40:36;;;;;;;6.28;4.78;;;26.10;99.90;;;;;;5095721;28;20208;-90
2021/06/08 11:43:04;;;;;;;7.28;5.80;;;26.40;99.90;;;;;;5075492;28;20227;-89
2021/06/08 11:45:32;;;;;;;7.13;5.30;;;26.20;99.90;;;;;;5076567;28;20212;-88
2021/06/08 11:47:58;;;;;;;6.80;5.28;;;25.90;99.90;;;;;;5076343;28;20218;-88
2021/06/08 11:50:47;;;;;;;4.25;3.75;;;25.90;99.90;;;;;;5076200;28;20203;-88
2021/06/08 11:53:15;;;;;;;4.25;3.33;;;25.20;99.90;;;;;;5051742;28;20225;-90
2021/06/08 11:55:41;;;;;;;4.43;3.75;;;24.90;99.90;;;;;;5050518;28;20213;-90
2021/06/08 11:58:37;;;;;;;2.95;2.75;;;24.60;99.90;;;;;;5034705;28;20638;-89
2021/06/08 12:01:04;;;;;;;5.10;2.90;;;24.30;99.90;;;;;;5040199;28;20641;-90
2021/06/08 12:03:35;;;;;;;4.07;3.60;;;24.30;99.90;;;;;;5052160;28;20214;-91
2021/06/08 12:06:02;;;;;;;4.20;3.42;;;24.30;99.90;;;;;;5053957;28;20760;-89
2021/06/08 12:08:33;;;;;;;4.25;3.85;;;24.00;99.90;;;;;;5037459;28;20714;-88
2021/06/08 12:11:18;;;;;;;4.90;3.72;;;24.50;99.90;;;;;;5054439;28;20209;-89
2021/06/08 12:13:44;;;;;;;4.90;3.65;;;24.70;99.90;;;;;;5037191;28;20222;-88
2021/06/08 12:16:14;;;;;;;5.45;4.43;;;24.00;99.90;;;;;;5052047;28;20671;-88
2021/06/08 12:18:41;;;;;;;4.72;4.10;;;23.70;99.90;;;;;;5029481;28;20908;-88
2021/06/08 12:21:11;;;;;;;6.55;4.72;;;23.60;99.90;;;;;;5056150;28;20205;-89
2021/06/08 12:23:39;;;;;;;5.05;3.25;;;23.80;99.90;;;;;;5022717;28;20222;-89
2021/06/08 12:26:10;;;;;;;8.18;3.47;;;23.90;99.90;;;;;;5054748;28;20241;-89
2021/06/08 12:28:39;;;;;;;3.17;2.88;;;23.90;99.90;;;;;;5055657;28;20580;-88
2021/06/08 12:31:18;;;;;;;3.38;3.08;;;23.60;99.90;;;;;;5054347;28;21087;-87
2021/06/08 12:33:45;;;;;;;2.67;1.98;;;23.80;99.90;;;;;;5056324;28;20178;-88
2021/06/08 12:36:11;;;;;;;4.15;3.25;;;23.80;99.90;;;;;;5038139;28;20420;-88
2021/06/08 12:38:56;;;;;;;3.83;2.90;;;23.80;99.90;;;;;;5040413;28;20699;-88
2021/06/08 12:41:26;;;;;;;2.90;2.40;;;24.10;99.90;;;;;;5057525;28;20749;-87
2021/06/08 12:43:55;;;;;;;4.80;3.10;;;23.90;99.90;;;;;;5041155;28;20224;-87
2021/06/08 12:46:31;;;;;;;4.50;3.58;;;23.70;99.90;;;;;;5055134;28;20214;-88
2021/06/08 12:49:18;;;;;;;5.60;4.45;;;23.80;99.90;;;;;;5054217;28;20648;-88
2021/06/08 12:51:57;;;;;;;5.68;3.80;;;23.90;99.90;;;;;;5043603;28;20585;-89
2021/06/08 12:54:51;;;;;;;7.50;4.25;;;24.00;99.90;;;;;;5062966;28;20209;-88
2021/06/08 12:57:32;;;;;;;6.63;5.22;;;24.00;99.90;;;;;;5062290;28;20578;-88
2021/06/08 13:00:02;;;;;;;5.72;4.30;;;23.70;99.90;;;;;;5064832;28;20220;-88